createdAt,value
2018-11-05T00:00:39.320Z,15.07
2018-11-05T00:03:10.548Z,15.37
2018-11-05T00:05:41.795Z,15.40
2018-11-05T00:08:12.903Z,14.13
2018-11-05T00:10:44.122Z,14.40
2018-11-05T00:13:15.248Z,17.57
2018-11-05T00:15:49.539Z,15.47
2018-11-05T00:18:20.962Z,16.20
2018-11-05T00:20:52.199Z,18.23
2018-11-05T00:23:23.512Z,15.13
2018-11-05T00:25:54.763Z,14.60
2018-11-05T00:28:25.925Z,18.73
2018-11-05T00:31:00.240Z,18.50
2018-11-05T00:33:31.448Z,15.40
2018-11-05T00:36:02.646Z,19.63
2018-11-05T00:38:34.147Z,17.00
2018-11-05T00:41:05.617Z,15.47
2018-11-05T00:43:37.175Z,18.30
2018-11-05T00:46:08.936Z,18.30
2018-11-05T00:48:40.119Z,17.33
2018-11-05T00:51:14.043Z,15.90
2018-11-05T00:53:45.484Z,15.23
2018-11-05T00:56:16.646Z,15.63
2018-11-05T00:58:47.830Z,16.80
2018-11-05T01:01:19.408Z,16.37
2018-11-05T01:03:50.941Z,17.87
2018-11-05T01:06:22.110Z,13.70
2018-11-05T01:08:53.241Z,16.43
2018-11-05T01:11:24.703Z,14.43
2018-11-05T01:13:58.012Z,15.80
2018-11-05T01:16:29.387Z,18.17
2018-11-05T01:19:06.680Z,14.57
2018-11-05T01:21:37.972Z,15.50
2018-11-05T01:24:09.276Z,15.80
2018-11-05T01:26:40.566Z,17.03
2018-11-05T01:29:12.074Z,16.83
2018-11-05T01:31:43.182Z,16.17
2018-11-05T01:34:14.475Z,14.40
2018-11-05T01:36:45.616Z,15.73
2018-11-05T01:39:16.851Z,15.87
2018-11-05T01:41:48.323Z,13.73
2018-11-05T01:44:21.973Z,15.93
2018-11-05T01:46:53.678Z,15.53
2018-11-05T01:49:25.246Z,15.53
2018-11-05T01:51:56.537Z,14.10
2018-11-05T01:54:28.524Z,15.37
2018-11-05T01:57:00.002Z,15.70
2018-11-05T01:59:31.206Z,14.20
2018-11-05T02:02:02.433Z,15.63
2018-11-05T02:04:33.939Z,14.70
2018-11-05T02:07:05.208Z,14.37
2018-11-05T02:09:36.303Z,15.30
2018-11-05T02:12:10.761Z,13.47
2018-11-05T02:14:41.905Z,14.57
2018-11-05T02:17:13.764Z,14.43
2018-11-05T02:19:45.295Z,14.63
2018-11-05T02:22:16.748Z,16.97
2018-11-05T02:24:47.977Z,17.13
2018-11-05T02:27:19.186Z,15.97
2018-11-05T02:29:50.564Z,19.00
2018-11-05T02:32:21.821Z,20.10
2018-11-05T02:34:53.171Z,20.03
2018-11-05T02:37:24.344Z,17.83
2018-11-05T02:39:55.575Z,17.27
2018-11-05T02:42:29.096Z,17.60
2018-11-05T02:45:00.316Z,15.07
2018-11-05T02:47:31.516Z,15.80
2018-11-05T02:50:02.861Z,14.33
2018-11-05T02:52:34.028Z,16.67
2018-11-05T02:55:05.465Z,17.67
2018-11-05T02:57:36.994Z,16.67
2018-11-05T03:00:20.269Z,17.00
2018-11-05T03:02:51.386Z,18.50
2018-11-05T03:05:22.657Z,15.87
2018-11-05T03:07:53.888Z,15.60
2018-11-05T03:10:25.097Z,15.13
2018-11-05T03:12:56.325Z,14.47
2018-11-05T03:15:27.818Z,13.67
2018-11-05T03:17:59.066Z,16.03
2018-11-05T03:20:31.229Z,14.13
2018-11-05T03:23:02.404Z,14.00
2018-11-05T03:25:33.580Z,14.17
2018-11-05T03:28:05.081Z,15.83
2018-11-05T03:30:36.107Z,17.60
2018-11-05T03:33:07.370Z,15.47
2018-11-05T03:35:38.644Z,14.20
2018-11-05T03:38:09.781Z,13.77
2018-11-05T03:40:40.933Z,15.03
2018-11-05T03:43:12.074Z,15.57
2018-11-05T03:45:43.302Z,15.87
2018-11-05T03:48:16.093Z,17.47
2018-11-05T03:50:45.672Z,15.23
2018-11-05T03:53:16.880Z,12.10
2018-11-05T03:55:48.186Z,14.20
2018-11-05T03:58:19.566Z,15.83
2018-11-05T04:00:50.726Z,14.73
2018-11-05T04:03:22.018Z,14.57
2018-11-05T04:05:53.253Z,15.47
2018-11-05T04:08:24.469Z,14.87
2018-11-05T04:10:55.740Z,16.13
2018-11-05T04:13:26.960Z,16.57
2018-11-05T04:15:58.221Z,13.97
2018-11-05T04:18:29.454Z,14.43
2018-11-05T04:21:00.568Z,14.90
2018-11-05T04:23:32.067Z,15.03
2018-11-05T04:26:03.247Z,12.73
2018-11-05T04:28:34.429Z,15.53
2018-11-05T04:31:08.491Z,15.80
2018-11-05T04:33:40.037Z,14.37
2018-11-05T04:36:11.607Z,15.07
2018-11-05T04:38:43.175Z,14.37
2018-11-05T04:41:14.286Z,13.57
2018-11-05T04:46:16.906Z,16.33
2018-11-05T04:48:48.288Z,14.00
2018-11-05T04:51:19.550Z,16.47
2018-11-05T04:53:50.655Z,16.13
2018-11-05T04:56:22.192Z,16.07
2018-11-05T04:58:53.463Z,16.93
2018-11-05T05:01:24.669Z,15.77
2018-11-05T05:03:55.845Z,15.13
2018-11-05T05:06:27.505Z,21.57
2018-11-05T05:08:58.670Z,15.80
2018-11-05T05:11:30.198Z,15.93
2018-11-05T05:14:01.348Z,16.07
2018-11-05T05:16:32.617Z,14.73
2018-11-05T05:19:04.203Z,13.60
2018-11-05T05:21:35.388Z,14.00
2018-11-05T05:24:06.632Z,16.53
2018-11-05T05:26:38.037Z,14.70
2018-11-05T05:29:09.620Z,14.40
2018-11-05T05:31:40.916Z,14.97
2018-11-05T05:34:12.094Z,15.87
2018-11-05T05:36:43.647Z,15.90
2018-11-05T05:39:15.093Z,12.60
2018-11-05T05:41:46.581Z,12.57
2018-11-05T05:44:20.097Z,14.50
2018-11-05T05:46:51.294Z,14.33
2018-11-05T05:49:22.464Z,13.70
2018-11-05T05:51:53.745Z,17.97
2018-11-05T05:54:24.938Z,14.53
2018-11-05T05:56:56.216Z,14.60
2018-11-05T05:59:28.500Z,14.97
2018-11-05T06:01:59.839Z,16.73
2018-11-05T06:04:31.243Z,18.20
2018-11-05T06:07:02.402Z,14.80
2018-11-05T06:09:33.851Z,15.10
2018-11-05T06:12:05.146Z,15.07
2018-11-05T06:14:36.327Z,16.07
2018-11-05T06:17:07.743Z,15.87
2018-11-05T06:19:39.049Z,16.57
2018-11-05T06:22:10.488Z,16.70
2018-11-05T06:24:41.776Z,15.43
2018-11-05T06:27:13.023Z,15.90
2018-11-05T06:29:49.980Z,16.07
2018-11-05T06:32:21.298Z,19.60
2018-11-05T06:34:52.609Z,17.23
2018-11-05T06:37:23.863Z,18.37
2018-11-05T06:39:55.029Z,18.10
2018-11-05T06:42:26.315Z,16.33
2018-11-05T06:44:57.741Z,16.27
2018-11-05T06:47:28.948Z,17.37
2018-11-05T06:50:03.414Z,18.93
2018-11-05T06:52:34.537Z,19.27
2018-11-05T06:55:06.081Z,21.33
2018-11-05T06:57:37.316Z,17.33
2018-11-05T07:00:24.177Z,18.20
2018-11-05T07:02:55.624Z,17.37
2018-11-05T07:05:27.309Z,20.60
2018-11-05T07:07:59.334Z,18.20
2018-11-05T07:10:30.667Z,20.23
2018-11-05T07:13:02.334Z,18.07
2018-11-05T07:15:33.646Z,19.10
2018-11-05T07:18:05.121Z,18.50
2018-11-05T07:20:36.427Z,17.97
2018-11-05T07:23:07.851Z,19.70
2018-11-05T07:25:39.017Z,21.30
2018-11-05T07:28:10.414Z,18.67
2018-11-05T07:30:42.113Z,20.80
2018-11-05T07:33:13.318Z,21.00
2018-11-05T07:35:44.536Z,21.00
2018-11-05T07:38:15.812Z,19.40
2018-11-05T07:40:47.593Z,19.53
2018-11-05T07:43:21.056Z,18.53
2018-11-05T07:45:53.459Z,17.17
2018-11-05T07:48:23.457Z,19.43
2018-11-05T07:50:54.911Z,18.17
2018-11-05T07:53:25.937Z,21.07
2018-11-05T07:55:57.971Z,19.77
2018-11-05T07:58:29.518Z,19.57
2018-11-05T08:01:01.020Z,21.57
2018-11-05T08:03:32.331Z,19.90
2018-11-05T08:06:04.258Z,17.80
2018-11-05T08:08:35.545Z,16.23
2018-11-05T08:11:06.994Z,22.47
2018-11-05T08:13:38.050Z,19.53
2018-11-05T08:16:09.408Z,21.70
2018-11-05T08:18:43.170Z,19.27
2018-11-05T08:21:14.551Z,18.90
2018-11-05T08:23:49.553Z,18.50
2018-11-05T08:26:20.772Z,17.97
2018-11-05T08:28:52.013Z,19.10
2018-11-05T08:31:23.286Z,18.50
2018-11-05T08:33:54.625Z,19.40
2018-11-05T08:36:25.791Z,20.57
2018-11-05T08:38:57.287Z,19.47
2018-11-05T08:41:28.744Z,20.90
2018-11-05T08:43:59.833Z,22.83
2018-11-05T08:46:31.203Z,19.47
2018-11-05T08:49:02.548Z,18.50
2018-11-05T08:51:34.156Z,22.37
2018-11-05T08:54:05.398Z,21.63
2018-11-05T08:56:36.574Z,19.33
2018-11-05T08:59:08.132Z,20.97
2018-11-05T09:01:40.381Z,21.27
2018-11-05T09:04:15.050Z,20.50
2018-11-05T09:06:46.264Z,22.20
2018-11-05T09:09:18.066Z,19.60
2018-11-05T09:11:49.688Z,19.87
2018-11-05T09:14:20.940Z,21.40
2018-11-05T09:16:52.434Z,24.20
2018-11-05T09:19:23.657Z,25.57
2018-11-05T09:21:54.793Z,28.43
2018-11-05T09:24:26.428Z,24.30
2018-11-05T09:26:58.149Z,25.47
2018-11-05T09:29:29.556Z,24.97
2018-11-05T09:32:00.997Z,19.70
2018-11-05T09:34:32.351Z,24.43
2018-11-05T09:37:03.661Z,21.27
2018-11-05T09:39:35.739Z,19.10
2018-11-05T09:42:07.246Z,15.63
2018-11-05T09:44:38.380Z,16.87
2018-11-05T09:47:09.668Z,17.90
2018-11-05T09:49:41.048Z,24.23
2018-11-05T09:52:12.543Z,28.27
2018-11-05T09:54:43.849Z,26.57
2018-11-05T09:57:15.745Z,25.27
2018-11-05T09:59:47.120Z,32.67
2018-11-05T10:02:18.523Z,23.53
2018-11-05T10:04:50.359Z,19.47
2018-11-05T10:07:21.405Z,17.57
2018-11-05T10:09:55.254Z,18.37
2018-11-05T10:12:26.816Z,17.30
2018-11-05T10:14:58.172Z,19.60
2018-11-05T10:17:29.682Z,20.57
2018-11-05T10:20:01.063Z,19.00
2018-11-05T10:22:32.460Z,20.03
2018-11-05T10:25:03.973Z,21.90
2018-11-05T10:27:35.019Z,18.70
2018-11-05T10:30:07.923Z,14.73
2018-11-05T10:32:39.531Z,15.43
2018-11-05T10:35:10.911Z,14.70
2018-11-05T10:37:42.305Z,15.53
2018-11-05T10:40:23.082Z,15.53
2018-11-05T10:42:54.506Z,15.33
2018-11-05T10:45:25.749Z,15.43
2018-11-05T10:47:57.057Z,15.73
2018-11-05T10:50:28.758Z,14.17
2018-11-05T10:52:59.795Z,15.63
2018-11-05T10:55:31.015Z,14.77
2018-11-05T10:58:02.704Z,19.07
2018-11-05T11:00:50.871Z,15.37
2018-11-05T11:03:22.161Z,14.77
2018-11-05T11:05:53.337Z,43.90
2018-11-05T11:08:24.631Z,26.40
2018-11-05T11:10:55.947Z,24.43
2018-11-05T11:13:27.776Z,19.50
2018-11-05T11:15:59.066Z,17.23
2018-11-05T11:18:30.641Z,17.47
2018-11-05T11:21:01.916Z,13.83
2018-11-05T11:23:33.206Z,13.27
2018-11-05T11:26:04.505Z,18.03
2018-11-05T11:28:35.816Z,26.17
2018-11-05T11:31:08.001Z,15.30
2018-11-05T11:33:39.565Z,12.80
2018-11-05T11:36:10.924Z,14.87
2018-11-05T11:38:42.378Z,17.03
2018-11-05T11:41:13.768Z,11.77
2018-11-05T11:43:45.733Z,11.97
2018-11-05T11:46:16.906Z,13.53
2018-11-05T11:48:48.620Z,15.40
2018-11-05T11:51:19.825Z,10.97
2018-11-05T11:53:51.600Z,14.70
2018-11-05T11:56:23.477Z,13.13
2018-11-05T11:58:54.838Z,11.63
2018-11-05T12:01:26.795Z,11.83
2018-11-05T12:03:58.742Z,13.70
2018-11-05T12:06:30.004Z,12.93
2018-11-05T12:09:01.411Z,15.53
2018-11-05T12:11:32.861Z,12.77
2018-11-05T12:14:04.156Z,11.47
2018-11-05T12:16:35.663Z,17.30
2018-11-05T12:19:09.146Z,14.47
2018-11-05T12:21:41.021Z,14.67
2018-11-05T12:24:12.335Z,14.77
2018-11-05T12:26:43.560Z,14.93
2018-11-05T12:29:14.746Z,11.67
2018-11-05T12:31:46.127Z,12.77
2018-11-05T12:34:17.166Z,12.57
2018-11-05T12:36:48.651Z,13.60
2018-11-05T12:39:19.725Z,12.07
2018-11-05T12:41:50.985Z,11.80
2018-11-05T12:44:22.013Z,15.03
2018-11-05T12:46:53.379Z,12.77
2018-11-05T12:49:29.873Z,12.27
2018-11-05T12:52:03.825Z,12.13
2018-11-05T12:54:34.935Z,12.83
2018-11-05T12:57:06.675Z,12.43
2018-11-05T12:59:37.971Z,14.63
2018-11-05T13:02:09.279Z,17.43
2018-11-05T13:04:40.681Z,15.67
2018-11-05T13:07:52.186Z,12.57
2018-11-05T13:10:23.415Z,11.03
2018-11-05T13:12:54.683Z,12.73
2018-11-05T13:15:26.002Z,13.43
2018-11-05T13:17:59.504Z,12.97
2018-11-05T13:20:30.751Z,12.87
2018-11-05T13:23:04.535Z,13.43
2018-11-05T13:25:35.714Z,12.23
2018-11-05T13:28:06.835Z,16.37
2018-11-05T13:30:38.192Z,10.53
2018-11-05T13:33:09.438Z,11.50
2018-11-05T13:35:40.746Z,12.10
2018-11-05T13:38:12.619Z,12.57
2018-11-05T13:40:43.431Z,12.43
2018-11-05T13:43:14.939Z,14.10
2018-11-05T13:45:46.399Z,16.17
2018-11-05T13:48:18.156Z,14.73
2018-11-05T13:50:48.938Z,10.73
2018-11-05T13:53:23.043Z,16.03
2018-11-05T13:55:58.047Z,13.43
2018-11-05T13:58:28.412Z,12.63
2018-11-05T14:01:02.625Z,13.87
2018-11-05T14:03:34.168Z,12.30
2018-11-05T14:06:05.425Z,13.20
2018-11-05T14:08:41.845Z,12.53
2018-11-05T14:11:13.040Z,14.43
2018-11-05T14:13:44.128Z,13.90
2018-11-05T14:16:15.311Z,11.20
2018-11-05T14:18:47.517Z,13.50
2018-11-05T14:21:17.624Z,12.30
2018-11-05T14:23:51.036Z,12.47
2018-11-05T14:26:22.247Z,11.60
2018-11-05T14:28:54.132Z,26.50
2018-11-05T14:31:27.454Z,23.47
2018-11-05T14:33:58.584Z,22.83
2018-11-05T14:36:29.683Z,30.23
2018-11-05T14:39:00.761Z,12.03
2018-11-05T14:41:34.242Z,12.43
2018-11-05T14:44:05.480Z,10.07
2018-11-05T14:46:36.606Z,12.07
2018-11-05T14:49:08.001Z,10.47
2018-11-05T14:51:39.833Z,12.20
2018-11-05T14:54:14.144Z,9.90
2018-11-05T14:56:48.073Z,13.10
2018-11-05T14:59:19.295Z,10.90
2018-11-05T15:02:08.934Z,11.53
2018-11-05T15:04:42.481Z,11.73
2018-11-05T15:07:13.942Z,11.20
2018-11-05T15:09:54.846Z,10.67
2018-11-05T15:12:26.063Z,9.67
2018-11-05T15:14:57.214Z,11.63
2018-11-05T15:17:29.571Z,9.40
2018-11-05T15:20:01.157Z,9.93
2018-11-05T15:22:31.791Z,9.20
2018-11-05T15:25:02.981Z,10.00
2018-11-05T15:27:36.266Z,10.60
2018-11-05T15:30:27.719Z,9.43
2018-11-05T15:32:59.354Z,9.43
2018-11-05T15:35:30.722Z,11.23
2018-11-05T15:38:01.905Z,8.77
2018-11-05T15:40:36.057Z,9.50
2018-11-05T15:43:07.715Z,9.93
2018-11-05T15:45:39.844Z,8.80
2018-11-05T15:48:11.220Z,8.87
2018-11-05T15:50:42.608Z,7.03
2018-11-05T15:53:14.284Z,9.87
2018-11-05T15:55:47.767Z,9.13
2018-11-05T15:58:22.167Z,9.10
2018-11-05T16:00:53.740Z,10.67
2018-11-05T16:03:26.310Z,10.30
2018-11-05T16:05:56.482Z,9.50
2018-11-05T16:08:28.182Z,10.33
2018-11-05T16:10:59.259Z,10.00
2018-11-05T16:13:30.524Z,8.57
2018-11-05T16:16:01.675Z,12.30
2018-11-05T16:18:32.892Z,14.13
2018-11-05T16:21:05.790Z,8.97
2018-11-05T16:23:39.960Z,9.00
2018-11-05T16:26:11.943Z,7.23
2018-11-05T16:28:43.181Z,9.73
2018-11-05T16:31:17.375Z,11.40
2018-11-05T16:33:49.191Z,11.37
2018-11-05T16:36:20.941Z,13.87
2018-11-05T16:39:00.212Z,9.33
2018-11-05T16:41:31.376Z,11.57
2018-11-05T16:44:04.628Z,9.03
2018-11-05T16:46:38.756Z,8.30
2018-11-05T16:49:09.934Z,10.70
2018-11-05T16:51:41.066Z,10.07
2018-11-05T16:54:12.312Z,10.60
2018-11-05T16:56:45.157Z,10.93
2018-11-05T16:59:32.071Z,11.70
2018-11-05T17:02:03.863Z,11.17
2018-11-05T17:04:54.105Z,9.00
2018-11-05T17:07:28.305Z,8.43
2018-11-05T17:10:02.291Z,12.20
2018-11-05T17:12:33.604Z,10.43
2018-11-05T17:15:04.917Z,10.80
2018-11-05T17:17:36.101Z,9.90
2018-11-05T17:20:10.086Z,8.97
2018-11-05T17:22:42.180Z,13.27
2018-11-05T17:25:14.142Z,11.77
2018-11-05T17:27:51.220Z,13.40
2018-11-05T17:30:26.254Z,12.03
2018-11-05T17:32:59.182Z,16.47
2018-11-05T17:35:32.716Z,14.67
2018-11-05T17:38:04.003Z,15.63
2018-11-05T17:40:37.977Z,15.23
2018-11-05T17:43:09.677Z,15.73
2018-11-05T17:45:41.027Z,14.13
2018-11-05T17:48:12.218Z,21.73
2018-11-05T17:50:57.130Z,16.10
2018-11-05T17:53:28.122Z,15.87
2018-11-05T17:56:01.025Z,17.97
2018-11-05T17:58:32.322Z,15.03
2018-11-05T18:01:03.444Z,16.57
2018-11-05T18:03:35.999Z,16.57
2018-11-05T18:06:08.244Z,15.73
2018-11-05T18:08:40.114Z,12.97
2018-11-05T18:11:11.322Z,14.57
2018-11-05T18:13:42.590Z,13.00
2018-11-05T18:16:13.715Z,14.97
2018-11-05T18:18:50.503Z,15.10
2018-11-05T18:21:24.488Z,16.23
2018-11-05T18:23:58.469Z,15.03
2018-11-05T18:26:31.344Z,14.03
2018-11-05T18:29:04.274Z,22.50
2018-11-05T18:31:36.571Z,12.57
2018-11-05T18:34:08.081Z,15.23
2018-11-05T18:36:39.657Z,17.07
2018-11-05T18:39:14.123Z,17.73
2018-11-05T18:41:47.777Z,15.73
2018-11-05T18:44:19.024Z,16.40
2018-11-05T18:46:50.494Z,15.70
2018-11-05T18:49:23.979Z,20.23
2018-11-05T18:52:18.900Z,17.90
2018-11-05T18:54:50.122Z,16.47
2018-11-05T18:57:21.622Z,17.40
2018-11-05T18:59:56.350Z,20.87
2018-11-05T19:02:36.488Z,16.17
2018-11-05T19:05:09.567Z,19.80
2018-11-05T19:07:40.784Z,26.60
2018-11-05T19:10:12.345Z,24.83
2018-11-05T19:12:47.641Z,21.80
2018-11-05T19:15:35.850Z,20.53
2018-11-05T19:18:10.514Z,23.70
2018-11-05T19:20:46.215Z,18.97
2018-11-05T19:23:23.790Z,16.70
2018-11-05T19:25:56.812Z,17.27
2018-11-05T19:28:35.975Z,16.27
2018-11-05T19:31:08.859Z,15.70
2018-11-05T19:33:44.656Z,13.43
2018-11-05T19:36:18.406Z,15.07
2018-11-05T19:38:57.104Z,16.33
2018-11-05T19:41:32.786Z,13.60
2018-11-05T19:44:07.094Z,15.93
2018-11-05T19:46:42.941Z,17.33
2018-11-05T19:49:14.393Z,16.90
2018-11-05T19:51:54.773Z,22.83
2018-11-05T19:54:37.377Z,17.90
2018-11-05T19:57:13.508Z,16.67
2018-11-05T19:59:49.301Z,18.87
2018-11-05T20:02:30.673Z,18.50
2018-11-05T20:05:04.278Z,16.33
2018-11-05T20:07:37.819Z,20.20
2018-11-05T20:10:14.609Z,20.57
2018-11-05T20:12:53.047Z,19.63
2018-11-05T20:15:29.675Z,21.60
2018-11-05T20:18:06.345Z,19.57
2018-11-05T20:20:37.900Z,20.93
2018-11-05T20:23:11.355Z,28.07
2018-11-05T20:25:45.316Z,18.33
2018-11-05T20:28:20.779Z,18.73
2018-11-05T20:30:55.790Z,18.20
2018-11-05T20:33:28.884Z,19.00
2018-11-05T20:36:03.245Z,28.03
2018-11-05T20:38:36.955Z,17.67
2018-11-05T20:41:12.924Z,17.47
2018-11-05T20:43:49.241Z,19.17
2018-11-05T20:46:23.118Z,19.67
2018-11-05T20:48:57.622Z,17.53
2018-11-05T20:51:32.138Z,18.87
2018-11-05T20:54:05.669Z,17.40
2018-11-05T20:56:39.653Z,17.27
2018-11-05T20:59:13.256Z,20.10
2018-11-05T21:01:47.747Z,20.87
2018-11-05T21:04:21.084Z,19.60
2018-11-05T21:06:54.456Z,20.30
2018-11-05T21:09:28.097Z,22.73
2018-11-05T21:12:03.043Z,21.13
2018-11-05T21:14:37.382Z,23.30
2018-11-05T21:17:10.798Z,20.87
2018-11-05T21:19:48.087Z,25.40
2018-11-05T21:22:21.510Z,26.17
2018-11-05T21:24:54.662Z,26.57
2018-11-05T21:27:28.421Z,17.07
2018-11-05T21:30:02.072Z,18.07
2018-11-05T21:32:37.686Z,21.97
2018-11-05T21:35:29.449Z,15.70
2018-11-05T21:38:05.062Z,16.03
2018-11-05T21:40:38.643Z,16.50
2018-11-05T21:43:12.564Z,15.93
2018-11-05T21:45:45.950Z,16.57
2018-11-05T21:48:35.566Z,16.73
2018-11-05T21:51:08.443Z,16.67
2018-11-05T21:53:41.687Z,16.07
2018-11-05T21:56:13.862Z,20.07
2018-11-05T21:58:46.233Z,23.60
2018-11-05T22:01:19.691Z,15.90
2018-11-05T22:03:54.265Z,16.37
2018-11-05T22:06:28.265Z,18.87
2018-11-05T22:09:03.622Z,18.17
2018-11-05T22:11:37.088Z,19.83
2018-11-05T22:14:10.624Z,16.67
2018-11-05T22:16:50.027Z,17.07
2018-11-05T22:19:23.250Z,15.37
2018-11-05T22:21:57.617Z,18.57
2018-11-05T22:24:38.522Z,15.47
2018-11-05T22:27:11.872Z,16.93
2018-11-05T22:29:45.843Z,17.77
2018-11-05T22:32:21.245Z,16.47
2018-11-05T22:35:02.859Z,15.40
2018-11-05T22:37:37.397Z,17.20
2018-11-05T22:40:17.205Z,18.43
2018-11-05T22:44:10.857Z,22.27
2018-11-05T22:46:44.561Z,19.90
2018-11-05T22:49:18.247Z,18.23
2018-11-05T22:51:51.718Z,18.23
2018-11-05T22:54:25.683Z,19.97
2018-11-05T22:56:59.074Z,21.73
2018-11-05T22:59:32.335Z,20.40
2018-11-05T23:02:06.393Z,19.33
2018-11-05T23:04:40.278Z,17.30
2018-11-05T23:07:13.329Z,15.17
2018-11-05T23:09:47.390Z,15.73
2018-11-05T23:12:22.231Z,16.30
2018-11-05T23:14:57.354Z,17.60
2018-11-05T23:17:32.783Z,15.60
2018-11-05T23:20:07.003Z,23.60
2018-11-05T23:22:41.795Z,18.00
2018-11-05T23:25:16.148Z,18.27
2018-11-05T23:27:50.635Z,20.47
2018-11-05T23:30:24.238Z,18.80
2018-11-05T23:32:59.370Z,18.23
2018-11-05T23:35:33.018Z,21.07
2018-11-05T23:38:08.393Z,18.80
2018-11-05T23:40:41.276Z,20.90
2018-11-05T23:43:15.621Z,15.77
2018-11-05T23:45:49.484Z,24.70
2018-11-05T23:48:23.511Z,18.60
2018-11-05T23:50:58.263Z,17.83
2018-11-05T23:53:32.204Z,17.50
2018-11-05T23:56:06.202Z,23.30
2018-11-05T23:58:41.792Z,17.23
